sensor_id;sensor_type;location;lat;lon;timestamp;P1;durP1;ratioP1;P2;durP2;ratioP2
31716;SDS011;18301;51.076;17.046;2023-04-01T00:04:19;16.92;;;8.68;;
31716;SDS011;18301;51.076;17.046;2023-04-01T00:09:21;11.68;;;6.22;;
31716;SDS011;18301;51.076;17.046;2023-04-01T00:14:23;8.02;;;5.22;;
31716;SDS011;18301;51.076;17.046;2023-04-01T00:19:24;6.88;;;4.75;;
31716;SDS011;18301;51.076;17.046;2023-04-01T00:24:26;6.28;;;4.63;;
31716;SDS011;18301;51.076;17.046;2023-04-01T00:29:28;7.90;;;5.47;;
31716;SDS011;18301;51.076;17.046;2023-04-01T00:34:31;8.90;;;5.50;;
31716;SDS011;18301;51.076;17.046;2023-04-01T00:39:33;9.38;;;5.65;;
31716;SDS011;18301;51.076;17.046;2023-04-01T00:44:36;10.90;;;5.40;;
31716;SDS011;18301;51.076;17.046;2023-04-01T00:49:42;8.68;;;5.65;;
31716;SDS011;18301;51.076;17.046;2023-04-01T00:54:47;10.20;;;5.97;;
31716;SDS011;18301;51.076;17.046;2023-04-01T00:59:52;9.30;;;5.82;;
31716;SDS011;18301;51.076;17.046;2023-04-01T01:04:55;8.80;;;6.47;;
31716;SDS011;18301;51.076;17.046;2023-04-01T01:15:22;8.10;;;6.40;;
31716;SDS011;18301;51.076;17.046;2023-04-01T01:31:15;7.22;;;5.43;;
31716;SDS011;18301;51.076;17.046;2023-04-01T01:36:18;7.82;;;5.60;;
31716;SDS011;18301;51.076;17.046;2023-04-01T01:41:22;8.60;;;5.90;;
31716;SDS011;18301;51.076;17.046;2023-04-01T01:46:27;7.25;;;5.32;;
31716;SDS011;18301;51.076;17.046;2023-04-01T01:51:32;9.07;;;5.72;;
31716;SDS011;18301;51.076;17.046;2023-04-01T01:56:33;9.68;;;5.45;;
31716;SDS011;18301;51.076;17.046;2023-04-01T02:01:37;8.35;;;5.38;;
31716;SDS011;18301;51.076;17.046;2023-04-01T02:06:45;8.23;;;5.07;;
31716;SDS011;18301;51.076;17.046;2023-04-01T02:11:59;8.77;;;4.93;;
31716;SDS011;18301;51.076;17.046;2023-04-01T02:17:05;7.38;;;5.13;;
31716;SDS011;18301;51.076;17.046;2023-04-01T02:22:11;7.78;;;4.80;;
31716;SDS011;18301;51.076;17.046;2023-04-01T02:27:17;6.88;;;4.68;;
31716;SDS011;18301;51.076;17.046;2023-04-01T02:32:20;5.45;;;4.13;;
31716;SDS011;18301;51.076;17.046;2023-04-01T02:37:21;7.15;;;4.85;;
31716;SDS011;18301;51.076;17.046;2023-04-01T02:42:24;5.70;;;3.95;;
31716;SDS011;18301;51.076;17.046;2023-04-01T02:47:26;7.60;;;4.22;;
31716;SDS011;18301;51.076;17.046;2023-04-01T02:52:28;5.00;;;3.25;;
31716;SDS011;18301;51.076;17.046;2023-04-01T02:57:30;6.70;;;3.88;;
31716;SDS011;18301;51.076;17.046;2023-04-01T03:02:32;6.03;;;4.07;;
31716;SDS011;18301;51.076;17.046;2023-04-01T03:07:33;5.80;;;3.47;;
31716;SDS011;18301;51.076;17.046;2023-04-01T03:12:35;5.65;;;3.70;;
31716;SDS011;18301;51.076;17.046;2023-04-01T03:17:37;6.85;;;3.60;;
31716;SDS011;18301;51.076;17.046;2023-04-01T03:22:39;4.85;;;3.35;;
31716;SDS011;18301;51.076;17.046;2023-04-01T03:27:43;4.90;;;3.00;;
31716;SDS011;18301;51.076;17.046;2023-04-01T03:32:44;5.97;;;3.28;;
31716;SDS011;18301;51.076;17.046;2023-04-01T03:37:46;4.18;;;2.83;;
31716;SDS011;18301;51.076;17.046;2023-04-01T03:42:47;5.72;;;3.47;;
31716;SDS011;18301;51.076;17.046;2023-04-01T03:47:50;4.15;;;3.35;;
31716;SDS011;18301;51.076;17.046;2023-04-01T03:52:51;4.35;;;3.20;;
31716;SDS011;18301;51.076;17.046;2023-04-01T03:57:53;5.28;;;3.10;;
31716;SDS011;18301;51.076;17.046;2023-04-01T04:02:54;6.55;;;3.45;;
31716;SDS011;18301;51.076;17.046;2023-04-01T04:07:57;7.60;;;4.00;;
31716;SDS011;18301;51.076;17.046;2023-04-01T04:12:59;4.53;;;3.80;;
31716;SDS011;18301;51.076;17.046;2023-04-01T04:18:00;10.15;;;5.13;;
31716;SDS011;18301;51.076;17.046;2023-04-01T04:23:02;8.95;;;4.05;;
31716;SDS011;18301;51.076;17.046;2023-04-01T04:28:03;5.97;;;3.63;;
31716;SDS011;18301;51.076;17.046;2023-04-01T04:33:05;4.40;;;3.05;;
31716;SDS011;18301;51.076;17.046;2023-04-01T04:38:06;6.93;;;3.72;;
31716;SDS011;18301;51.076;17.046;2023-04-01T04:43:12;7.22;;;3.67;;
31716;SDS011;18301;51.076;17.046;2023-04-01T04:48:15;6.15;;;3.85;;
31716;SDS011;18301;51.076;17.046;2023-04-01T04:53:19;7.45;;;3.00;;
31716;SDS011;18301;51.076;17.046;2023-04-01T04:58:21;4.78;;;2.60;;
31716;SDS011;18301;51.076;17.046;2023-04-01T05:03:22;5.03;;;2.72;;
31716;SDS011;18301;51.076;17.046;2023-04-01T05:08:24;5.05;;;3.20;;
31716;SDS011;18301;51.076;17.046;2023-04-01T05:13:26;6.93;;;3.55;;
31716;SDS011;18301;51.076;17.046;2023-04-01T05:18:28;7.28;;;3.22;;
31716;SDS011;18301;51.076;17.046;2023-04-01T05:23:31;3.38;;;2.47;;
31716;SDS011;18301;51.076;17.046;2023-04-01T05:28:33;3.50;;;2.65;;
31716;SDS011;18301;51.076;17.046;2023-04-01T05:33:34;3.50;;;2.40;;
31716;SDS011;18301;51.076;17.046;2023-04-01T05:38:36;4.53;;;2.80;;
31716;SDS011;18301;51.076;17.046;2023-04-01T05:43:38;3.35;;;2.65;;
31716;SDS011;18301;51.076;17.046;2023-04-01T05:48:40;2.75;;;2.13;;
31716;SDS011;18301;51.076;17.046;2023-04-01T05:53:42;3.85;;;2.85;;
31716;SDS011;18301;51.076;17.046;2023-04-01T05:58:45;7.07;;;2.50;;
31716;SDS011;18301;51.076;17.046;2023-04-01T06:03:51;3.10;;;2.53;;
31716;SDS011;18301;51.076;17.046;2023-04-01T06:08:53;5.38;;;2.60;;
31716;SDS011;18301;51.076;17.046;2023-04-01T06:14:18;5.63;;;2.47;;
31716;SDS011;18301;51.076;17.046;2023-04-01T06:31:23;3.75;;;2.25;;
31716;SDS011;18301;51.076;17.046;2023-04-01T06:35:56;7.53;;;3.67;;
31716;SDS011;18301;51.076;17.046;2023-04-01T06:51:16;4.93;;;3.63;;
31716;SDS011;18301;51.076;17.046;2023-04-01T06:56:19;4.25;;;3.08;;
31716;SDS011;18301;51.076;17.046;2023-04-01T07:01:26;5.25;;;3.05;;
31716;SDS011;18301;51.076;17.046;2023-04-01T07:06:42;3.25;;;2.80;;
31716;SDS011;18301;51.076;17.046;2023-04-01T07:11:48;4.63;;;2.65;;
31716;SDS011;18301;51.076;17.046;2023-04-01T07:16:54;4.38;;;2.53;;
31716;SDS011;18301;51.076;17.046;2023-04-01T07:27:36;3.28;;;2.00;;
31716;SDS011;18301;51.076;17.046;2023-04-01T07:32:47;4.30;;;2.42;;
31716;SDS011;18301;51.076;17.046;2023-04-01T07:43:56;5.07;;;2.53;;
31716;SDS011;18301;51.076;17.046;2023-04-01T07:49:14;2.72;;;2.28;;
31716;SDS011;18301;51.076;17.046;2023-04-01T07:54:22;5.07;;;1.95;;
31716;SDS011;18301;51.076;17.046;2023-04-01T08:04:40;6.03;;;2.28;;
31716;SDS011;18301;51.076;17.046;2023-04-01T08:15:23;4.57;;;2.17;;
31716;SDS011;18301;51.076;17.046;2023-04-01T08:31:06;6.30;;;2.60;;
31716;SDS011;18301;51.076;17.046;2023-04-01T08:36:15;4.95;;;2.55;;
31716;SDS011;18301;51.076;17.046;2023-04-01T08:41:30;5.45;;;2.60;;
31716;SDS011;18301;51.076;17.046;2023-04-01T08:46:49;4.07;;;2.58;;
31716;SDS011;18301;51.076;17.046;2023-04-01T09:13:51;4.35;;;2.75;;
31716;SDS011;18301;51.076;17.046;2023-04-01T09:19:20;4.47;;;2.85;;
31716;SDS011;18301;51.076;17.046;2023-04-01T09:24:35;4.90;;;2.90;;
31716;SDS011;18301;51.076;17.046;2023-04-01T09:40:16;5.28;;;3.25;;
31716;SDS011;18301;51.076;17.046;2023-04-01T09:50:57;3.45;;;2.83;;
31716;SDS011;18301;51.076;17.046;2023-04-01T10:01:57;5.35;;;3.80;;
31716;SDS011;18301;51.076;17.046;2023-04-01T10:50:53;6.15;;;3.17;;
31716;SDS011;18301;51.076;17.046;2023-04-01T11:28:27;1.90;;;1.60;;
31716;SDS011;18301;51.076;17.046;2023-04-01T11:33:53;1.88;;;1.55;;
31716;SDS011;18301;51.076;17.046;2023-04-01T11:39:14;3.00;;;2.00;;
31716;SDS011;18301;51.076;17.046;2023-04-01T11:44:24;1.92;;;1.45;;
31716;SDS011;18301;51.076;17.046;2023-04-01T11:49:46;2.03;;;1.80;;
31716;SDS011;18301;51.076;17.046;2023-04-01T12:00:27;1.55;;;1.20;;
31716;SDS011;18301;51.076;17.046;2023-04-01T12:05:38;2.05;;;1.10;;
31716;SDS011;18301;51.076;17.046;2023-04-01T12:10:53;1.08;;;1.00;;
31716;SDS011;18301;51.076;17.046;2023-04-01T12:37:50;1.83;;;1.20;;
31716;SDS011;18301;51.076;17.046;2023-04-01T12:54:02;1.20;;;1.10;;
31716;SDS011;18301;51.076;17.046;2023-04-01T12:59:19;1.95;;;1.30;;
31716;SDS011;18301;51.076;17.046;2023-04-01T13:05:11;2.15;;;1.73;;
31716;SDS011;18301;51.076;17.046;2023-04-01T13:10:38;2.30;;;1.92;;
31716;SDS011;18301;51.076;17.046;2023-04-01T13:21:43;3.45;;;2.53;;
31716;SDS011;18301;51.076;17.046;2023-04-01T13:27:05;3.88;;;3.13;;
31716;SDS011;18301;51.076;17.046;2023-04-01T13:38:05;6.40;;;3.47;;
31716;SDS011;18301;51.076;17.046;2023-04-01T13:43:22;7.50;;;5.00;;
31716;SDS011;18301;51.076;17.046;2023-04-01T14:31:04;4.28;;;1.80;;
31716;SDS011;18301;51.076;17.046;2023-04-01T14:47:17;3.58;;;2.15;;
31716;SDS011;18301;51.076;17.046;2023-04-01T14:52:32;3.13;;;2.38;;
31716;SDS011;18301;51.076;17.046;2023-04-01T14:57:37;3.92;;;2.42;;
31716;SDS011;18301;51.076;17.046;2023-04-01T15:02:48;3.58;;;2.90;;
31716;SDS011;18301;51.076;17.046;2023-04-01T15:13:12;5.07;;;3.30;;
31716;SDS011;18301;51.076;17.046;2023-04-01T15:29:25;4.70;;;3.30;;
31716;SDS011;18301;51.076;17.046;2023-04-01T15:34:47;4.43;;;2.60;;
31716;SDS011;18301;51.076;17.046;2023-04-01T15:40:17;4.68;;;2.72;;
31716;SDS011;18301;51.076;17.046;2023-04-01T15:55:48;6.40;;;4.70;;
31716;SDS011;18301;51.076;17.046;2023-04-01T16:00:58;4.78;;;3.58;;
31716;SDS011;18301;51.076;17.046;2023-04-01T16:06:12;4.95;;;3.80;;
31716;SDS011;18301;51.076;17.046;2023-04-01T16:27:51;8.20;;;5.50;;
31716;SDS011;18301;51.076;17.046;2023-04-01T16:43:29;7.47;;;5.32;;
31716;SDS011;18301;51.076;17.046;2023-04-01T16:59:24;9.70;;;6.32;;
31716;SDS011;18301;51.076;17.046;2023-04-01T17:04:32;10.37;;;6.90;;
31716;SDS011;18301;51.076;17.046;2023-04-01T17:15:11;12.98;;;7.95;;
31716;SDS011;18301;51.076;17.046;2023-04-01T17:20:26;12.23;;;7.93;;
31716;SDS011;18301;51.076;17.046;2023-04-01T17:25:47;14.10;;;8.48;;
31716;SDS011;18301;51.076;17.046;2023-04-01T17:52:34;18.08;;;11.30;;
31716;SDS011;18301;51.076;17.046;2023-04-01T17:57:46;17.88;;;10.82;;
31716;SDS011;18301;51.076;17.046;2023-04-01T18:08:05;19.85;;;11.27;;
31716;SDS011;18301;51.076;17.046;2023-04-01T18:18:45;46.58;;;26.08;;
31716;SDS011;18301;51.076;17.046;2023-04-01T18:29:52;29.40;;;17.15;;
31716;SDS011;18301;51.076;17.046;2023-04-01T18:45:36;28.23;;;16.98;;
31716;SDS011;18301;51.076;17.046;2023-04-01T18:50:52;26.00;;;15.80;;
31716;SDS011;18301;51.076;17.046;2023-04-01T18:55:59;31.33;;;17.90;;
31716;SDS011;18301;51.076;17.046;2023-04-01T19:01:11;40.40;;;24.37;;
31716;SDS011;18301;51.076;17.046;2023-04-01T19:11:43;45.88;;;23.17;;
31716;SDS011;18301;51.076;17.046;2023-04-01T19:27:37;33.30;;;18.88;;
31716;SDS011;18301;51.076;17.046;2023-04-01T19:33:08;39.55;;;20.50;;
31716;SDS011;18301;51.076;17.046;2023-04-01T19:38:28;31.85;;;18.55;;
31716;SDS011;18301;51.076;17.046;2023-04-01T19:43:46;33.25;;;18.33;;
31716;SDS011;18301;51.076;17.046;2023-04-01T19:59:28;29.35;;;16.75;;
31716;SDS011;18301;51.076;17.046;2023-04-01T20:09:59;29.35;;;17.13;;
31716;SDS011;18301;51.076;17.046;2023-04-01T20:20:30;32.28;;;18.67;;
31716;SDS011;18301;51.076;17.046;2023-04-01T20:25:47;47.30;;;26.77;;
31716;SDS011;18301;51.076;17.046;2023-04-01T20:36:41;42.55;;;21.55;;
31716;SDS011;18301;51.076;17.046;2023-04-01T20:47:24;38.55;;;20.55;;
31716;SDS011;18301;51.076;17.046;2023-04-01T20:58:01;32.45;;;19.52;;
31716;SDS011;18301;51.076;17.046;2023-04-01T21:08:46;32.78;;;19.52;;
31716;SDS011;18301;51.076;17.046;2023-04-01T21:35:02;35.55;;;21.38;;
31716;SDS011;18301;51.076;17.046;2023-04-01T22:07:24;33.10;;;19.92;;
31716;SDS011;18301;51.076;17.046;2023-04-01T22:12:38;35.20;;;19.85;;
31716;SDS011;18301;51.076;17.046;2023-04-01T22:17:54;37.63;;;20.27;;
31716;SDS011;18301;51.076;17.046;2023-04-01T22:23:25;41.88;;;21.80;;
31716;SDS011;18301;51.076;17.046;2023-04-01T22:28:37;36.85;;;20.00;;
31716;SDS011;18301;51.076;17.046;2023-04-01T22:34:08;42.83;;;22.42;;
31716;SDS011;18301;51.076;17.046;2023-04-01T22:39:21;47.05;;;23.52;;
31716;SDS011;18301;51.076;17.046;2023-04-01T22:55:19;33.35;;;18.80;;
31716;SDS011;18301;51.076;17.046;2023-04-01T23:00:39;30.92;;;18.58;;
31716;SDS011;18301;51.076;17.046;2023-04-01T23:06:03;24.83;;;16.05;;
31716;SDS011;18301;51.076;17.046;2023-04-01T23:11:06;26.63;;;16.60;;
31716;SDS011;18301;51.076;17.046;2023-04-01T23:16:11;21.60;;;14.32;;
31716;SDS011;18301;51.076;17.046;2023-04-01T23:21:15;22.25;;;13.98;;
31716;SDS011;18301;51.076;17.046;2023-04-01T23:26:34;20.30;;;13.68;;
31716;SDS011;18301;51.076;17.046;2023-04-01T23:31:42;19.10;;;12.13;;
31716;SDS011;18301;51.076;17.046;2023-04-01T23:36:46;18.27;;;12.10;;
31716;SDS011;18301;51.076;17.046;2023-04-01T23:41:51;14.73;;;10.55;;
31716;SDS011;18301;51.076;17.046;2023-04-01T23:46:56;14.95;;;10.13;;
31716;SDS011;18301;51.076;17.046;2023-04-01T23:57:32;15.85;;;10.82;;
